Time;durP1;ratioP1;P1;durP2;ratioP2;P2;SDS_P1;SDS_P2;PMS_P1;PMS_P2;Temp;Humidity;BMP_temperature;BMP_pressure;BME280_temperature;BME280_humidity;BME280_pressure;Samples;Min_cycle;Max_cycle;Signal;HPM_P1;HPM_P2
2022/10/26 02:48:03;;;;;;;4.75;1.23;;;14.20;99.60;;;;;;5034822;23;90568;-84
2022/10/26 02:50:40;;;;;;;4.13;1.30;;;14.20;99.90;;;;;;4843981;29;91284;-84
2022/10/26 02:53:17;;;;;;;5.50;1.35;;;14.30;99.90;;;;;;4852846;29;87003;-84
2022/10/26 02:55:48;;;;;;;13.85;2.80;;;14.20;99.90;;;;;;4846663;29;86403;-89
2022/10/26 02:58:26;;;;;;;2.72;0.50;;;14.30;99.90;;;;;;4855883;29;90400;-88
2022/10/26 03:00:52;;;;;;;4.47;0.57;;;14.50;98.20;;;;;;4846299;29;87526;-90
2022/10/26 03:03:19;;;;;;;8.70;1.15;;;14.80;97.10;;;;;;4856482;29;86222;-89
2022/10/26 03:05:44;;;;;;;6.18;0.93;;;14.90;97.30;;;;;;4853231;29;85684;-87
2022/10/26 03:08:10;;;;;;;6.53;1.27;;;15.00;97.30;;;;;;4852362;28;91005;-90
2022/10/26 03:10:41;;;;;;;5.07;1.20;;;14.80;97.80;;;;;;4875201;23;87375;-71
2022/10/26 03:13:07;;;;;;;5.75;1.00;;;14.90;97.80;;;;;;4866240;28;87159;-71
2022/10/26 03:15:32;;;;;;;7.30;1.20;;;14.90;97.60;;;;;;4862505;28;86314;-72
2022/10/26 03:17:58;;;;;;;6.10;1.50;;;14.90;97.90;;;;;;4862674;29;87289;-71
2022/10/26 03:20:24;;;;;;;8.32;2.30;;;14.90;98.50;;;;;;4862805;28;87007;-70
2022/10/26 03:22:49;;;;;;;7.05;1.90;;;14.80;98.80;;;;;;4861723;29;86884;-71
2022/10/26 03:25:15;;;;;;;10.48;2.40;;;14.80;98.80;;;;;;4862952;29;86689;-71
2022/10/26 03:27:41;;;;;;;5.47;1.83;;;14.80;99.30;;;;;;4862376;28;86780;-71
2022/10/26 03:30:08;;;;;;;6.80;2.50;;;14.80;99.90;;;;;;4875040;28;88322;-70
2022/10/26 03:32:33;;;;;;;6.28;2.90;;;14.80;99.90;;;;;;4871168;28;86992;-71
2022/10/26 03:34:59;;;;;;;7.00;2.83;;;14.80;99.90;;;;;;4862593;28;86544;-71
2022/10/26 03:37:25;;;;;;;7.22;2.80;;;14.70;99.90;;;;;;4862775;29;87484;-71
2022/10/26 03:39:50;;;;;;;7.45;2.65;;;14.70;99.90;;;;;;4867985;28;87892;-70
2022/10/26 03:42:16;;;;;;;8.90;2.80;;;14.70;99.90;;;;;;4863464;29;87381;-71
2022/10/26 03:44:42;;;;;;;7.35;2.70;;;14.80;99.90;;;;;;4862096;28;87611;-71
2022/10/26 03:47:07;;;;;;;5.45;2.42;;;14.80;99.90;;;;;;4861858;28;87392;-71
2022/10/26 03:49:33;;;;;;;9.77;2.83;;;14.80;99.90;;;;;;4865426;28;87117;-71
2022/10/26 03:51:59;;;;;;;6.78;2.45;;;14.70;99.90;;;;;;4881252;28;86184;-71
2022/10/26 03:54:25;;;;;;;7.68;2.92;;;14.80;99.90;;;;;;4859901;28;85521;-71
2022/10/26 03:56:51;;;;;;;8.25;2.80;;;14.80;99.90;;;;;;4856458;29;86861;-71
2022/10/26 03:59:17;;;;;;;10.68;2.50;;;14.80;99.90;;;;;;4867477;28;87037;-70
2022/10/26 04:01:43;;;;;;;4.63;2.38;;;14.90;99.90;;;;;;4874999;28;87498;-71
2022/10/26 04:04:09;;;;;;;9.30;2.47;;;14.90;99.90;;;;;;4857507;29;86711;-72
2022/10/26 04:06:34;;;;;;;10.27;3.20;;;15.00;99.90;;;;;;4853954;29;87103;-71
2022/10/26 04:09:01;;;;;;;6.85;2.80;;;15.00;99.90;;;;;;4860187;28;86781;-71
2022/10/26 04:11:30;;;;;;;9.38;2.53;;;15.00;99.90;;;;;;4868642;28;86854;-71
2022/10/26 04:13:58;;;;;;;7.20;2.95;;;15.00;99.90;;;;;;4862120;28;86621;-72
2022/10/26 04:16:24;;;;;;;9.73;2.53;;;14.90;99.90;;;;;;4861743;29;87244;-71
2022/10/26 04:18:50;;;;;;;7.35;2.55;;;14.90;99.90;;;;;;4863550;28;87024;-72
2022/10/26 04:21:15;;;;;;;11.15;2.70;;;14.90;99.90;;;;;;4858019;28;87075;-72
2022/10/26 04:23:41;;;;;;;7.00;2.60;;;14.90;99.90;;;;;;4860012;29;86536;-72
2022/10/26 04:26:07;;;;;;;8.73;3.38;;;14.90;99.90;;;;;;4861407;28;88097;-72
2022/10/26 04:28:33;;;;;;;7.45;3.10;;;14.90;99.90;;;;;;4860128;28;87636;-71
2022/10/26 04:30:59;;;;;;;8.63;3.30;;;14.70;99.90;;;;;;4854523;29;87011;-71
2022/10/26 04:33:24;;;;;;;6.55;3.58;;;14.70;99.90;;;;;;4860851;29;87162;-71
2022/10/26 04:35:50;;;;;;;8.02;3.58;;;14.70;99.90;;;;;;4857948;29;87216;-70
2022/10/26 04:38:15;;;;;;;9.25;3.55;;;14.60;99.90;;;;;;4861382;29;86870;-69
2022/10/26 04:40:41;;;;;;;7.68;3.80;;;14.50;99.90;;;;;;4864719;28;86959;-70
2022/10/26 04:43:07;;;;;;;9.73;3.85;;;14.40;99.90;;;;;;4860609;29;86440;-70
2022/10/26 04:45:33;;;;;;;11.07;4.65;;;14.40;99.90;;;;;;4861046;29;87338;-70
2022/10/26 04:48:00;;;;;;;8.35;4.13;;;14.40;99.90;;;;;;4860460;29;86384;-70
2022/10/26 04:50:26;;;;;;;12.40;4.28;;;14.40;99.90;;;;;;4859941;28;87904;-70
2022/10/26 04:52:52;;;;;;;8.52;4.00;;;14.50;99.90;;;;;;4859673;29;86256;-71
2022/10/26 04:55:18;;;;;;;8.98;3.65;;;14.50;99.90;;;;;;4858555;28;87264;-71
2022/10/26 04:57:44;;;;;;;8.57;3.53;;;14.60;99.90;;;;;;4859170;29;86981;-71
2022/10/26 05:00:10;;;;;;;7.68;3.70;;;14.60;99.90;;;;;;4859817;28;86172;-71
2022/10/26 05:02:36;;;;;;;11.73;3.22;;;14.60;99.90;;;;;;4858912;28;86593;-71
2022/10/26 05:05:02;;;;;;;7.80;3.72;;;14.60;99.90;;;;;;4858292;28;87759;-70
2022/10/26 05:07:27;;;;;;;7.40;3.13;;;14.60;99.90;;;;;;4860078;29;86254;-71
2022/10/26 05:09:53;;;;;;;5.60;3.10;;;14.60;99.90;;;;;;4860086;28;86606;-71
2022/10/26 05:12:19;;;;;;;7.97;3.60;;;14.60;99.90;;;;;;4860696;29;86306;-71
2022/10/26 05:14:44;;;;;;;8.25;3.55;;;14.60;99.90;;;;;;4859584;29;87550;-71
2022/10/26 05:17:10;;;;;;;9.57;3.42;;;14.50;99.90;;;;;;4864297;28;87174;-71
2022/10/26 05:19:36;;;;;;;7.45;2.97;;;14.50;99.90;;;;;;4857208;28;88252;-71
2022/10/26 05:22:03;;;;;;;7.32;3.35;;;14.40;99.90;;;;;;4857921;28;86933;-71
2022/10/26 05:24:28;;;;;;;6.10;2.00;;;14.40;99.90;;;;;;4854709;29;87219;-71
2022/10/26 05:26:54;;;;;;;6.28;1.58;;;14.40;99.90;;;;;;4858774;29;86283;-72
2022/10/26 05:29:20;;;;;;;3.60;0.60;;;14.50;99.90;;;;;;4860481;28;86307;-72
2022/10/26 05:31:45;;;;;;;3.17;0.40;;;14.60;99.90;;;;;;4864168;28;86282;-69
2022/10/26 05:34:11;;;;;;;1.65;0.20;;;14.70;99.90;;;;;;4859010;29;87200;-70
2022/10/26 05:36:37;;;;;;;3.28;0.30;;;14.80;99.90;;;;;;4864133;28;86453;-70
2022/10/26 05:39:02;;;;;;;3.53;0.30;;;15.00;99.20;;;;;;4863942;28;87884;-70
2022/10/26 05:41:28;;;;;;;2.40;0.20;;;15.10;98.70;;;;;;4863761;28;86267;-70
2022/10/26 05:43:53;;;;;;;2.03;0.20;;;15.20;98.30;;;;;;4861905;29;86833;-70
2022/10/26 05:46:19;;;;;;;2.42;0.95;;;15.30;97.90;;;;;;4858469;29;87484;-70
2022/10/26 05:48:45;;;;;;;4.53;0.40;;;15.30;98.10;;;;;;4861839;28;88001;-70
2022/10/26 05:51:11;;;;;;;1.95;0.20;;;15.40;96.40;;;;;;4862400;29;87435;-70
2022/10/26 05:53:37;;;;;;;4.80;0.32;;;15.40;94.20;;;;;;4858852;28;87077;-70
2022/10/26 05:56:31;;;;;;;1.38;0.10;;;15.60;93.70;;;;;;4863438;28;87102;-70
2022/10/26 05:58:57;;;;;;;1.23;0.10;;;15.70;92.60;;;;;;4856763;28;86492;-70
2022/10/26 06:01:22;;;;;;;3.30;0.25;;;15.80;92.60;;;;;;4862027;28;86822;-71
2022/10/26 06:03:57;;;;;;;2.25;0.22;;;15.90;91.50;;;;;;4859801;28;88018;-72
2022/10/26 06:06:24;;;;;;;2.65;0.15;;;16.00;90.90;;;;;;4855040;28;91299;-71
2022/10/26 06:08:50;;;;;;;2.25;0.10;;;16.20;90.00;;;;;;4849733;28;87587;-71
2022/10/26 06:11:16;;;;;;;3.28;0.20;;;16.30;89.00;;;;;;4851215;28;86427;-72
2022/10/26 06:13:42;;;;;;;5.72;0.30;;;16.30;90.00;;;;;;4852201;28;88079;-71
2022/10/26 06:16:11;;;;;;;2.88;0.30;;;16.30;90.10;;;;;;4854331;28;88671;-71
2022/10/26 06:18:51;;;;;;;2.13;0.20;;;16.30;91.20;;;;;;4856926;28;86833;-71
2022/10/26 06:21:19;;;;;;;3.33;0.28;;;16.20;90.70;;;;;;4852979;28;88341;-71
2022/10/26 06:23:50;;;;;;;5.50;0.50;;;16.20;90.60;;;;;;4852081;28;86573;-72
2022/10/26 06:26:34;;;;;;;7.47;0.30;;;16.10;91.30;;;;;;4852859;28;87455;-71
2022/10/26 06:29:02;;;;;;;2.10;0.20;;;16.10;91.30;;;;;;4857962;28;87765;-70
2022/10/26 06:31:28;;;;;;;3.72;0.70;;;16.00;91.90;;;;;;4856929;28;88697;-70
2022/10/26 06:33:58;;;;;;;5.85;0.25;;;16.00;92.20;;;;;;4854676;28;87246;-71
2022/10/26 06:36:25;;;;;;;;;;;16.00;92.30;;;;;;4855645;28;87398;-71
2022/10/26 06:39:03;;;;;;;4.55;0.20;;;16.10;90.80;;;;;;4862977;28;87070;-71
2022/10/26 06:41:32;;;;;;;2.47;0.35;;;16.10;90.80;;;;;;4853663;29;87260;-70
2022/10/26 06:43:58;;;;;;;2.13;0.20;;;16.20;90.30;;;;;;4853238;28;86745;-72
2022/10/26 06:46:47;;;;;;;2.67;0.20;;;16.30;90.10;;;;;;4856955;29;86908;-72
2022/10/26 06:49:12;;;;;;;3.00;0.10;;;16.40;89.80;;;;;;4856464;28;87117;-72
2022/10/26 06:51:50;;;;;;;3.83;0.20;;;16.40;88.80;;;;;;4862506;28;87369;-74
2022/10/26 06:54:48;;;;;;;5.20;0.30;;;16.50;87.30;;;;;;4860221;29;89692;-71
2022/10/26 06:57:15;;;;;;;3.65;0.30;;;16.70;87.80;;;;;;4860829;29;87809;-70
2022/10/26 06:59:59;;;;;;;4.80;0.20;;;16.80;84.60;;;;;;4861388;29;87735;-72
2022/10/26 07:02:25;;;;;;;4.20;0.40;;;16.90;83.90;;;;;;4862471;28;86341;-72
2022/10/26 07:04:51;;;;;;;3.78;0.10;;;17.00;84.30;;;;;;4861588;28;86609;-72
2022/10/26 07:07:22;;;;;;;1.45;0.15;;;17.00;83.60;;;;;;4861561;28;88592;-72
2022/10/26 07:09:48;;;;;;;2.90;0.28;;;17.10;82.70;;;;;;4860216;28;87009;-72
2022/10/26 07:12:14;;;;;;;5.22;0.20;;;17.10;82.50;;;;;;4862128;28;85472;-72
2022/10/26 07:14:40;;;;;;;2.42;0.20;;;17.10;82.40;;;;;;4861396;28;87267;-72
2022/10/26 07:17:07;;;;;;;2.28;0.10;;;17.20;82.70;;;;;;4861706;28;86977;-72
2022/10/26 07:19:33;;;;;;;1.50;0.20;;;17.20;83.00;;;;;;4859781;28;87848;-72
2022/10/26 07:22:00;;;;;;;6.55;0.10;;;17.30;81.60;;;;;;4861278;28;86702;-72
2022/10/26 07:24:26;;;;;;;2.83;0.30;;;17.30;82.60;;;;;;4861352;29;86960;-72
2022/10/26 07:26:56;;;;;;;8.02;0.20;;;17.40;81.70;;;;;;4862246;29;86813;-72
2022/10/26 07:29:23;;;;;;;1.20;0.10;;;17.50;81.10;;;;;;4861771;28;87722;-74
2022/10/26 07:31:49;;;;;;;4.07;0.13;;;17.50;79.70;;;;;;4861659;28;86639;-72
2022/10/26 07:34:14;;;;;;;1.63;0.10;;;17.60;80.30;;;;;;4857815;28;88003;-71
2022/10/26 07:36:40;;;;;;;2.60;0.20;;;17.60;79.10;;;;;;4859686;29;87072;-71
2022/10/26 07:39:06;;;;;;;1.98;0.30;;;17.70;80.50;;;;;;4861961;28;86718;-71
2022/10/26 07:41:32;;;;;;;3.08;0.30;;;17.70;78.70;;;;;;4857939;28;86491;-71
2022/10/26 07:43:58;;;;;;;11.00;0.40;;;17.70;79.90;;;;;;4858649;28;88358;-72
2022/10/26 07:46:25;;;;;;;2.42;0.43;;;17.60;80.00;;;;;;4856540;28;88224;-71
2022/10/26 07:48:50;;;;;;;1.85;0.20;;;17.60;79.90;;;;;;4860940;29;86679;-72
2022/10/26 07:51:16;;;;;;;1.98;0.10;;;17.60;79.10;;;;;;4858129;29;86713;-72
2022/10/26 07:53:42;;;;;;;2.10;0.20;;;17.70;77.70;;;;;;4861050;28;87209;-72
2022/10/26 07:56:09;;;;;;;2.92;0.40;;;17.90;78.30;;;;;;4860399;29;86886;-71
2022/10/26 07:58:35;;;;;;;4.47;0.50;;;18.00;77.30;;;;;;4855771;28;86464;-71
2022/10/26 08:01:09;;;;;;;1.83;0.20;;;18.20;78.20;;;;;;4854600;29;86287;-72
2022/10/26 08:03:35;;;;;;;3.95;0.45;;;18.20;77.90;;;;;;4860104;29;86801;-71
2022/10/26 08:06:03;;;;;;;3.60;0.20;;;18.20;77.40;;;;;;4860471;29;86881;-72
2022/10/26 08:08:28;;;;;;;2.67;0.17;;;18.20;78.10;;;;;;4860063;29;87603;-72
2022/10/26 08:10:54;;;;;;;3.45;0.30;;;18.10;78.90;;;;;;4858811;28;88443;-71
2022/10/26 08:13:19;;;;;;;2.47;0.20;;;18.10;80.00;;;;;;4859312;28;86761;-71
2022/10/26 08:15:46;;;;;;;2.40;0.20;;;18.00;80.70;;;;;;4860471;29;86370;-72
2022/10/26 08:18:12;;;;;;;3.65;0.40;;;17.90;80.50;;;;;;4859016;28;86564;-68
2022/10/26 08:20:38;;;;;;;1.20;0.20;;;17.90;80.60;;;;;;4860209;28;86912;-72
2022/10/26 08:23:05;;;;;;;3.10;0.20;;;17.90;81.30;;;;;;4859004;29;87308;-72
2022/10/26 08:25:31;;;;;;;2.05;0.20;;;17.90;80.70;;;;;;4860612;28;86178;-72
2022/10/26 08:28:02;;;;;;;2.00;0.30;;;18.00;80.30;;;;;;4860137;29;86687;-72
2022/10/26 08:30:28;;;;;;;2.50;0.30;;;18.10;80.70;;;;;;4859820;28;87825;-72
2022/10/26 08:33:02;;;;;;;3.92;0.40;;;18.10;81.30;;;;;;4859153;29;88253;-71
2022/10/26 08:35:28;;;;;;;3.40;0.40;;;18.20;81.60;;;;;;4858836;28;87751;-71
2022/10/26 08:37:54;;;;;;;2.28;0.40;;;18.30;80.70;;;;;;4860100;29;86799;-71
2022/10/26 08:40:41;;;;;;;3.67;0.60;;;19.60;79.90;;;;;;4860069;28;86883;-70
2022/10/26 08:43:20;;;;;;;1.80;0.40;;;19.80;73.50;;;;;;4859829;28;87021;-70
2022/10/26 08:45:54;;;;;;;1.58;0.20;;;19.70;74.10;;;;;;4858083;29;86971;-70
2022/10/26 08:48:26;;;;;;;2.15;0.50;;;19.50;75.00;;;;;;4858447;28;86451;-70
2022/10/26 08:50:55;;;;;;;1.95;0.20;;;19.30;74.00;;;;;;4857742;29;85811;-70
2022/10/26 08:53:39;;;;;;;5.80;0.40;;;19.10;76.00;;;;;;4859581;29;87452;-70
2022/10/26 08:56:20;;;;;;;3.00;0.30;;;19.00;75.80;;;;;;4853120;29;86703;-70
2022/10/26 08:59:11;;;;;;;5.57;0.20;;;18.80;75.50;;;;;;4856995;28;87409;-70
2022/10/26 09:01:36;;;;;;;2.60;0.30;;;18.70;76.00;;;;;;4859428;28;86371;-72
2022/10/26 09:04:07;;;;;;;2.10;0.28;;;18.70;75.70;;;;;;4859153;29;87276;-70
2022/10/26 09:06:39;;;;;;;2.85;0.60;;;18.70;75.30;;;;;;4859371;29;87050;-71
2022/10/26 09:09:20;;;;;;;2.60;0.28;;;18.90;76.70;;;;;;4859904;29;86798;-72
2022/10/26 09:11:53;;;;;;;2.15;0.50;;;18.90;77.20;;;;;;4860984;28;86883;-72
2022/10/26 09:14:27;;;;;;;5.95;0.52;;;18.90;75.70;;;;;;4862831;28;86880;-72
2022/10/26 09:17:15;;;;;;;1.55;0.32;;;18.90;75.20;;;;;;4862025;28;86461;-71
2022/10/26 09:20:11;;;;;;;2.55;0.73;;;18.80;73.30;;;;;;4862535;28;86573;-71
2022/10/26 09:22:42;;;;;;;3.90;0.50;;;18.90;74.40;;;;;;4859645;29;87209;-72
2022/10/26 09:25:37;;;;;;;2.40;0.43;;;19.10;74.40;;;;;;4862501;29;88092;-69
2022/10/26 09:28:04;;;;;;;2.58;0.47;;;19.30;72.40;;;;;;4861392;28;87296;-70
2022/10/26 09:30:31;;;;;;;4.05;0.65;;;19.30;72.60;;;;;;4862457;29;87086;-70
2022/10/26 09:33:01;;;;;;;2.45;0.52;;;19.30;72.90;;;;;;4863337;28;86824;-72
2022/10/26 09:35:32;;;;;;;2.60;0.80;;;19.20;72.90;;;;;;4859145;29;86995;-70
2022/10/26 09:38:35;;;;;;;3.33;0.80;;;19.20;73.70;;;;;;4862440;28;87376;-70
2022/10/26 09:41:51;;;;;;;5.97;0.50;;;19.50;73.90;;;;;;4860866;28;86849;-70
2022/10/26 09:44:39;;;;;;;1.65;0.55;;;19.70;72.20;;;;;;4859988;29;85706;-72
2022/10/26 09:47:12;;;;;;;3.58;0.50;;;20.90;68.60;;;;;;4859012;29;86779;-71
2022/10/26 09:49:49;;;;;;;2.67;0.50;;;21.00;70.00;;;;;;4860178;28;86380;-71
2022/10/26 09:52:15;;;;;;;2.88;0.38;;;20.90;68.20;;;;;;4859806;29;87749;-72
2022/10/26 09:54:41;;;;;;;5.25;1.67;;;20.60;69.00;;;;;;4862143;28;86605;-72
2022/10/26 09:57:08;;;;;;;4.18;0.40;;;20.40;68.40;;;;;;4861994;29;87246;-71
2022/10/26 09:59:38;;;;;;;3.00;0.50;;;20.20;68.40;;;;;;4862062;28;86339;-72
2022/10/26 10:02:38;;;;;;;4.13;0.60;;;20.20;69.50;;;;;;4861023;28;86394;-72
2022/10/26 10:05:36;;;;;;;1.73;0.63;;;20.40;70.20;;;;;;4861279;28;86481;-71
2022/10/26 10:08:28;;;;;;;1.95;0.35;;;20.60;70.20;;;;;;4859580;28;87033;-72
2022/10/26 10:11:00;;;;;;;3.95;1.10;;;20.80;70.50;;;;;;4860839;28;86959;-71
2022/10/26 10:13:31;;;;;;;4.00;1.42;;;21.00;69.70;;;;;;4858486;28;86646;-72
2022/10/26 10:16:12;;;;;;;4.07;1.13;;;21.30;68.40;;;;;;4857703;28;86516;-72
2022/10/26 10:18:40;;;;;;;4.75;1.20;;;22.10;66.10;;;;;;4861122;28;88116;-72
2022/10/26 10:21:07;;;;;;;5.03;1.20;;;21.90;65.10;;;;;;4862097;29;87778;-71
2022/10/26 10:23:35;;;;;;;8.40;1.77;;;21.70;66.20;;;;;;4862385;29;87011;-72
2022/10/26 10:26:07;;;;;;;9.02;2.47;;;21.60;68.20;;;;;;4859010;28;88247;-71
2022/10/26 10:28:34;;;;;;;17.02;3.70;;;21.50;68.80;;;;;;4861306;28;88284;-72
2022/10/26 10:31:06;;;;;;;6.57;1.30;;;21.60;68.30;;;;;;4861346;29;86294;-70
2022/10/26 10:33:33;;;;;;;27.98;4.25;;;21.60;67.90;;;;;;4859071;29;87939;-70
2022/10/26 10:36:00;;;;;;;21.98;3.42;;;21.50;69.70;;;;;;4861364;28;86198;-72
2022/10/26 10:38:26;;;;;;;5.53;1.02;;;21.20;73.00;;;;;;4850125;29;87753;-72
2022/10/26 10:40:59;;;;;;;5.03;0.70;;;21.00;74.20;;;;;;4857579;28;87374;-71
2022/10/26 10:43:25;;;;;;;2.83;0.52;;;20.80;74.20;;;;;;4856808;28;90060;-71
2022/10/26 10:45:54;;;;;;;2.92;0.93;;;20.90;74.90;;;;;;4858292;28;86533;-71
2022/10/26 10:48:23;;;;;;;6.20;0.93;;;21.00;74.70;;;;;;4858157;29;86750;-71
2022/10/26 10:50:57;;;;;;;;;;;21.10;73.60;;;;;;4859061;29;86839;-71
2022/10/26 10:53:37;;;;;;;3.47;0.50;;;21.10;73.80;;;;;;4863319;28;86283;-72
2022/10/26 10:56:33;;;;;;;5.78;0.50;;;21.10;74.30;;;;;;4860459;29;87103;-71
2022/10/26 10:59:07;;;;;;;5.35;0.50;;;21.00;73.50;;;;;;4861072;28;87729;-71
2022/10/26 11:01:39;;;;;;;3.92;0.47;;;21.00;73.50;;;;;;4858374;28;86969;-72
2022/10/26 11:04:24;;;;;;;4.25;0.60;;;21.00;74.80;;;;;;4859509;28;86897;-71
2022/10/26 11:06:52;;;;;;;5.70;0.70;;;20.90;73.90;;;;;;4857698;28;87044;-71
2022/10/26 11:09:25;;;;;;;2.60;0.70;;;21.00;75.80;;;;;;4848935;29;87622;-71
2022/10/26 11:12:00;;;;;;;5.05;0.57;;;21.00;74.80;;;;;;4859350;28;86874;-71
2022/10/26 11:14:35;;;;;;;4.47;0.80;;;21.00;75.20;;;;;;4859985;28;86892;-71
2022/10/26 11:17:14;;;;;;;3.28;0.57;;;20.90;74.00;;;;;;4858353;28;86947;-72
2022/10/26 11:19:51;;;;;;;2.78;0.70;;;20.90;74.30;;;;;;4860094;28;87336;-71
2022/10/26 11:22:23;;;;;;;3.53;0.70;;;20.90;75.20;;;;;;4860991;28;86960;-72
2022/10/26 11:24:51;;;;;;;2.80;0.73;;;21.00;75.60;;;;;;4861007;29;86957;-71
2022/10/26 11:27:22;;;;;;;2.55;0.65;;;21.00;75.20;;;;;;4859739;28;86358;-71
2022/10/26 11:30:02;;;;;;;3.13;0.50;;;21.00;72.80;;;;;;4860613;29;86792;-71
2022/10/26 11:32:39;;;;;;;3.10;0.50;;;21.30;68.90;;;;;;4859947;28;88569;-72
2022/10/26 11:35:14;;;;;;;2.80;0.32;;;21.50;69.40;;;;;;4851644;29;88099;-71
2022/10/26 11:37:56;;;;;;;2.78;0.30;;;21.60;66.90;;;;;;4858050;28;86955;-71
2022/10/26 11:40:46;;;;;;;3.40;0.57;;;21.70;67.70;;;;;;4858404;29;87375;-71
2022/10/26 11:43:23;;;;;;;3.55;0.32;;;21.70;66.30;;;;;;4852162;29;86576;-71
2022/10/26 11:46:14;;;;;;;5.10;0.30;;;21.60;66.80;;;;;;4860593;28;86665;-71
2022/10/26 11:48:46;;;;;;;2.33;0.32;;;21.50;65.50;;;;;;4850270;28;87493;-71
2022/10/26 11:51:20;;;;;;;9.73;0.40;;;21.40;65.90;;;;;;4851254;28;86879;-71
2022/10/26 11:53:48;;;;;;;2.83;0.68;;;21.30;65.60;;;;;;4860649;28;87040;-71
2022/10/26 11:56:31;;;;;;;3.63;0.60;;;21.30;66.10;;;;;;4860729;29;86383;-70
2022/10/26 11:58:58;;;;;;;2.42;0.30;;;21.30;65.60;;;;;;4854700;28;86920;-71
2022/10/26 12:01:26;;;;;;;3.17;0.47;;;21.30;65.60;;;;;;4860340;28;87880;-71
2022/10/26 12:03:56;;;;;;;4.03;0.30;;;21.40;65.30;;;;;;4858376;28;88418;-71
2022/10/26 12:06:24;;;;;;;;;;;21.50;64.70;;;;;;4860617;29;86192;-72
2022/10/26 12:09:05;;;;;;;1.50;0.25;;;21.70;65.20;;;;;;4861949;29;86673;-72
2022/10/26 12:11:53;;;;;;;3.25;0.50;;;21.90;64.00;;;;;;4859132;29;87320;-72
2022/10/26 12:14:36;;;;;;;2.22;0.38;;;22.00;63.80;;;;;;4858965;28;87119;-71
2022/10/26 12:17:29;;;;;;;1.60;0.30;;;22.20;63.70;;;;;;4860630;28;86383;-71
2022/10/26 12:20:38;;;;;;;4.07;0.38;;;22.20;63.30;;;;;;4859529;29;86003;-71
2022/10/26 12:23:05;;;;;;;4.53;0.55;;;22.20;63.70;;;;;;4838327;29;86604;-71
2022/10/26 12:25:31;;;;;;;6.90;0.43;;;22.20;64.80;;;;;;4838726;29;87238;-71
2022/10/26 12:27:58;;;;;;;2.17;0.30;;;22.20;64.10;;;;;;4834064;29;87370;-72
2022/10/26 12:30:30;;;;;;;2.30;0.52;;;22.10;63.60;;;;;;4859604;28;86334;-71
2022/10/26 12:33:23;;;;;;;1.70;0.60;;;22.00;65.10;;;;;;4860740;28;87132;-71
2022/10/26 12:35:49;;;;;;;4.95;0.22;;;22.00;64.20;;;;;;4856154;28;86952;-72
2022/10/26 12:38:20;;;;;;;3.50;0.47;;;21.80;65.40;;;;;;4857331;28;86339;-71
2022/10/26 12:40:47;;;;;;;2.05;0.40;;;21.80;67.20;;;;;;4858140;29;86419;-71
2022/10/26 12:43:12;;;;;;;1.90;0.30;;;21.70;65.50;;;;;;4860058;28;87401;-71
2022/10/26 12:45:43;;;;;;;1.58;0.35;;;21.70;66.00;;;;;;4859279;28;86091;-71
2022/10/26 12:48:42;;;;;;;2.63;0.40;;;21.60;66.10;;;;;;4863343;29;86999;-71
2022/10/26 12:51:37;;;;;;;2.00;0.60;;;21.50;64.80;;;;;;4860378;28;86736;-72
2022/10/26 12:54:02;;;;;;;2.92;0.70;;;21.50;65.30;;;;;;4862238;29;88237;-71
2022/10/26 12:56:55;;;;;;;3.90;0.32;;;21.50;66.40;;;;;;4861378;29;87863;-71
2022/10/26 12:59:38;;;;;;;2.50;0.30;;;21.40;66.30;;;;;;4861742;28;86760;-72
2022/10/26 13:02:28;;;;;;;3.60;0.40;;;21.30;66.00;;;;;;4860917;28;86941;-71
2022/10/26 13:05:26;;;;;;;2.72;0.55;;;21.20;64.60;;;;;;4859755;29;87281;-71
2022/10/26 13:07:59;;;;;;;2.20;0.32;;;21.00;66.00;;;;;;4861433;28;86409;-71
2022/10/26 13:10:25;;;;;;;3.15;0.50;;;20.90;65.60;;;;;;4866836;28;86868;-71
2022/10/26 13:12:54;;;;;;;1.90;0.20;;;21.00;65.80;;;;;;4855417;29;85655;-71
2022/10/26 13:15:22;;;;;;;2.85;0.50;;;21.00;66.30;;;;;;4855056;28;87334;-71
2022/10/26 13:18:01;;;;;;;3.88;0.50;;;21.10;65.80;;;;;;4853188;29;86950;-71
2022/10/26 13:20:29;;;;;;;2.03;0.20;;;21.30;66.50;;;;;;4856455;28;87591;-71
2022/10/26 13:22:55;;;;;;;2.50;0.30;;;21.50;65.10;;;;;;4853862;29;86927;-72
2022/10/26 13:25:29;;;;;;;2.67;0.35;;;21.60;64.30;;;;;;4847992;29;88871;-71
2022/10/26 13:28:25;;;;;;;5.55;0.43;;;21.60;63.80;;;;;;4848396;28;87001;-72
2022/10/26 13:30:51;;;;;;;1.55;0.35;;;21.60;62.60;;;;;;4859571;29;86757;-72
2022/10/26 13:33:21;;;;;;;2.13;0.28;;;21.60;64.30;;;;;;4856950;29;87532;-71
2022/10/26 13:35:48;;;;;;;2.60;0.40;;;21.50;63.50;;;;;;4852419;29;86802;-72
2022/10/26 13:38:19;;;;;;;2.70;0.32;;;21.50;64.30;;;;;;4850701;28;86306;-71
2022/10/26 13:40:45;;;;;;;1.75;0.30;;;21.40;65.80;;;;;;4860392;29;86497;-70
2022/10/26 13:43:19;;;;;;;2.95;0.20;;;21.30;66.10;;;;;;4860581;29;87459;-72
2022/10/26 13:45:57;;;;;;;3.78;0.52;;;21.30;66.00;;;;;;4865458;28;89526;-72
2022/10/26 13:48:36;;;;;;;2.70;0.22;;;21.20;66.30;;;;;;4861154;28;88454;-72
2022/10/26 13:51:24;;;;;;;2.53;0.30;;;21.00;66.90;;;;;;4855956;29;86364;-72
2022/10/26 13:54:00;;;;;;;2.83;0.47;;;21.10;67.00;;;;;;4854163;29;86257;-73
2022/10/26 13:56:33;;;;;;;5.60;0.30;;;21.00;67.50;;;;;;4852783;28;87169;-72
2022/10/26 13:59:11;;;;;;;1.38;0.43;;;21.00;66.60;;;;;;4856588;29;86940;-72
2022/10/26 14:01:37;;;;;;;1.90;0.40;;;21.00;67.70;;;;;;4859386;29;86904;-74
2022/10/26 14:04:16;;;;;;;2.85;0.38;;;21.00;67.90;;;;;;4856036;29;85548;-72
2022/10/26 14:06:49;;;;;;;2.42;0.50;;;21.00;67.80;;;;;;4854199;28;87598;-71
2022/10/26 14:09:17;;;;;;;2.40;0.35;;;21.00;67.90;;;;;;4852010;29;86791;-71
2022/10/26 14:11:46;;;;;;;2.08;0.30;;;21.00;67.90;;;;;;4852815;28;87421;-71
2022/10/26 14:14:21;;;;;;;4.25;0.32;;;21.00;67.80;;;;;;4861105;28;86783;-71
2022/10/26 14:16:50;;;;;;;3.25;0.43;;;20.90;68.30;;;;;;4861124;29;87070;-71
2022/10/26 14:19:33;;;;;;;4.10;0.47;;;20.90;68.20;;;;;;4850156;29;86991;-72
2022/10/26 14:21:59;;;;;;;3.08;0.30;;;20.80;68.20;;;;;;4852559;29;86691;-72
2022/10/26 14:24:30;;;;;;;3.75;0.47;;;20.70;69.20;;;;;;4849830;29;86239;-73
2022/10/26 14:26:56;;;;;;;3.15;0.43;;;20.70;68.80;;;;;;4852130;29;88071;-72
2022/10/26 14:29:24;;;;;;;3.65;0.50;;;20.70;68.40;;;;;;4857726;29;86784;-71
2022/10/26 14:31:50;;;;;;;3.05;0.30;;;20.70;68.40;;;;;;4851575;29;86373;-73
2022/10/26 14:34:18;;;;;;;4.38;0.63;;;20.60;68.40;;;;;;4853392;28;86535;-71
2022/10/26 14:36:54;;;;;;;10.35;0.43;;;20.60;69.20;;;;;;4860202;29;88907;-72
2022/10/26 14:39:32;;;;;;;2.85;0.30;;;20.60;68.90;;;;;;4853951;28;87340;-72
2022/10/26 14:42:00;;;;;;;3.65;0.35;;;20.60;68.80;;;;;;4858613;29;86669;-73
2022/10/26 14:44:28;;;;;;;3.72;0.50;;;20.60;68.80;;;;;;4848021;29;86819;-72
2022/10/26 14:46:53;;;;;;;2.55;0.50;;;20.50;68.70;;;;;;4848134;29;87935;-72
2022/10/26 14:49:24;;;;;;;4.75;0.55;;;20.50;69.50;;;;;;4854187;28;87162;-72
2022/10/26 14:51:58;;;;;;;4.82;0.50;;;20.50;69.60;;;;;;4856073;28;86293;-71
2022/10/26 14:54:27;;;;;;;3.10;0.60;;;20.50;69.60;;;;;;4857924;28;85594;-70
2022/10/26 14:56:54;;;;;;;3.17;0.30;;;20.40;70.10;;;;;;4862003;28;88035;-70
2022/10/26 14:59:31;;;;;;;3.45;0.50;;;20.40;70.10;;;;;;4857370;28;87847;-71
2022/10/26 15:02:00;;;;;;;5.05;0.40;;;20.40;70.40;;;;;;4847233;29;87711;-71
2022/10/26 15:05:02;;;;;;;4.95;0.52;;;20.30;70.40;;;;;;4856606;29;86255;-71
2022/10/26 15:07:39;;;;;;;8.07;0.60;;;20.30;71.00;;;;;;4847957;29;87328;-71
2022/10/26 15:10:25;;;;;;;3.60;0.70;;;20.20;71.40;;;;;;4850543;29;86904;-71
2022/10/26 15:12:51;;;;;;;2.67;0.70;;;20.10;72.40;;;;;;4851864;29;86642;-72
2022/10/26 15:15:19;;;;;;;6.45;0.32;;;20.10;72.40;;;;;;4850955;29;86901;-70
2022/10/26 15:17:56;;;;;;;4.57;0.47;;;20.00;75.90;;;;;;4855794;29;87798;-72
2022/10/26 15:20:24;;;;;;;2.45;0.45;;;20.00;74.70;;;;;;4859900;29;88612;-72
2022/10/26 15:22:55;;;;;;;4.53;0.55;;;19.90;74.00;;;;;;4852910;29;86370;-72
2022/10/26 15:25:27;;;;;;;6.30;1.40;;;19.80;74.10;;;;;;4857585;28;86936;-72
2022/10/26 15:27:53;;;;;;;8.63;1.02;;;19.70;74.90;;;;;;4850366;28;87619;-72
2022/10/26 15:30:26;;;;;;;5.97;1.30;;;19.70;75.20;;;;;;4854213;29;88380;-72
2022/10/26 15:32:54;;;;;;;3.97;0.52;;;19.60;75.10;;;;;;4851847;28;86696;-72
2022/10/26 15:35:26;;;;;;;3.90;0.65;;;19.50;76.10;;;;;;4851166;29;86915;-72
2022/10/26 15:37:53;;;;;;;5.85;0.70;;;19.40;75.80;;;;;;4851802;28;87361;-72
2022/10/26 15:40:20;;;;;;;5.13;0.50;;;19.40;76.70;;;;;;4851289;29;86239;-72
2022/10/26 15:42:49;;;;;;;3.22;0.57;;;19.30;77.20;;;;;;4850314;28;87822;-72
2022/10/26 15:45:23;;;;;;;2.63;0.40;;;19.30;77.30;;;;;;4853367;28;86446;-72
2022/10/26 15:47:51;;;;;;;12.18;3.20;;;19.20;77.80;;;;;;4845566;29;88600;-72
2022/10/26 15:50:22;;;;;;;6.85;1.40;;;19.10;78.70;;;;;;4858102;28;87465;-68
2022/10/26 15:52:53;;;;;;;3.72;0.82;;;18.90;79.40;;;;;;4852115;28;87202;-67
2022/10/26 15:55:19;;;;;;;6.10;1.70;;;18.80;79.80;;;;;;4858824;29;86164;-67
2022/10/26 15:57:46;;;;;;;5.38;0.80;;;18.80;80.40;;;;;;4846316;29;88309;-67